createdAt,value
2022-10-14T00:01:36.985Z,23.10
2022-10-14T00:04:07.376Z,23.20
2022-10-14T00:06:37.035Z,23.20
2022-10-14T00:09:10.117Z,23.20
2022-10-14T00:11:39.925Z,23.20
2022-10-14T00:14:14.428Z,23.30
2022-10-14T00:16:45.717Z,23.30
2022-10-14T00:19:15.905Z,23.30
2022-10-14T00:21:46.622Z,23.40
2022-10-14T00:24:17.565Z,23.40
2022-10-14T00:26:47.615Z,23.40
2022-10-14T00:29:20.213Z,23.50
2022-10-14T00:31:50.220Z,23.50
2022-10-14T00:34:19.474Z,23.60
2022-10-14T00:36:48.725Z,23.60
2022-10-14T00:39:18.608Z,23.70
2022-10-14T00:41:48.914Z,23.70
2022-10-14T00:44:20.191Z,23.70
2022-10-14T00:46:51.790Z,23.80
2022-10-14T00:49:42.702Z,23.80
2022-10-14T00:52:27.638Z,23.80
2022-10-14T00:55:02.893Z,23.90
2022-10-14T00:57:32.742Z,24.00
2022-10-14T01:00:10.178Z,24.00
2022-10-14T01:02:41.405Z,24.00
2022-10-14T01:05:13.828Z,24.00
2022-10-14T01:07:49.896Z,24.00
2022-10-14T01:10:52.670Z,24.00
2022-10-14T01:13:45.662Z,24.10
2022-10-14T01:16:36.784Z,24.20
2022-10-14T01:19:27.264Z,24.30
2022-10-14T01:22:23.294Z,24.30
2022-10-14T01:25:04.608Z,24.30
2022-10-14T01:27:45.420Z,24.40
2022-10-14T01:30:20.829Z,24.40
2022-10-14T01:33:18.124Z,24.40
2022-10-14T01:36:03.139Z,24.50
2022-10-14T01:38:42.287Z,24.60
2022-10-14T01:41:18.290Z,24.60
2022-10-14T01:43:50.726Z,24.60
2022-10-14T01:46:23.291Z,24.60
2022-10-14T01:48:56.782Z,24.60
2022-10-14T01:51:40.819Z,24.70
2022-10-14T01:54:16.405Z,24.70
2022-10-14T01:56:48.084Z,24.70
2022-10-14T01:59:20.857Z,24.70
2022-10-14T02:01:49.892Z,24.80
2022-10-14T02:04:22.392Z,24.80
2022-10-14T02:07:08.929Z,24.90
2022-10-14T02:10:17.510Z,24.90
2022-10-14T02:13:06.775Z,25.00
2022-10-14T02:15:51.927Z,25.00
2022-10-14T02:18:26.699Z,25.10
2022-10-14T02:21:03.830Z,25.20
2022-10-14T02:23:41.042Z,25.20
2022-10-14T02:26:12.890Z,25.30
2022-10-14T02:28:44.936Z,25.30
2022-10-14T02:31:18.347Z,25.30
2022-10-14T02:33:54.453Z,25.40
2022-10-14T02:36:26.019Z,25.40
2022-10-14T02:38:59.516Z,25.50
2022-10-14T02:41:36.343Z,25.50
2022-10-14T02:44:07.915Z,25.50
2022-10-14T02:46:37.992Z,25.50
2022-10-14T02:49:07.585Z,25.60
2022-10-14T02:51:38.728Z,25.60
2022-10-14T02:54:08.308Z,25.70
2022-10-14T02:56:37.619Z,25.70
2022-10-14T02:59:07.059Z,25.70
2022-10-14T03:01:37.834Z,25.80
2022-10-14T03:04:10.532Z,25.90
2022-10-14T03:06:39.943Z,25.90
2022-10-14T03:09:09.393Z,26.00
2022-10-14T03:11:38.719Z,26.10
2022-10-14T03:14:08.309Z,26.10
2022-10-14T03:16:38.663Z,26.10
2022-10-14T03:19:08.432Z,26.10
2022-10-14T03:21:37.740Z,26.00
2022-10-14T03:24:07.358Z,26.10
2022-10-14T03:26:36.708Z,26.10
2022-10-14T03:29:06.106Z,26.20
2022-10-14T03:31:35.530Z,26.30
2022-10-14T03:34:05.235Z,26.30
2022-10-14T03:36:34.666Z,26.50
2022-10-14T03:39:05.041Z,26.50
2022-10-14T03:41:34.589Z,26.40
2022-10-14T03:44:04.002Z,26.50
2022-10-14T03:46:34.193Z,26.40
2022-10-14T03:49:03.618Z,26.40
2022-10-14T03:51:33.036Z,26.50
2022-10-14T03:54:02.335Z,26.50
2022-10-14T03:56:31.712Z,26.50
2022-10-14T03:59:01.238Z,26.60
2022-10-14T04:01:30.726Z,26.60
2022-10-14T04:04:00.135Z,26.60
2022-10-14T04:06:29.588Z,26.70
2022-10-14T04:08:58.919Z,26.70
2022-10-14T04:11:28.346Z,26.70
2022-10-14T04:14:00.941Z,26.80
2022-10-14T04:16:30.632Z,26.80
2022-10-14T04:19:00.520Z,26.90
2022-10-14T04:21:29.768Z,26.90
2022-10-14T04:23:58.981Z,27.00
2022-10-14T04:26:28.272Z,27.10
2022-10-14T04:28:57.627Z,27.10
2022-10-14T04:31:27.122Z,27.10
2022-10-14T04:33:56.591Z,27.10
2022-10-14T04:36:25.906Z,27.10
2022-10-14T04:38:55.417Z,27.10
2022-10-14T04:41:25.082Z,27.10
2022-10-14T04:43:54.307Z,27.20
2022-10-14T04:46:23.687Z,27.20
2022-10-14T04:48:52.927Z,27.30
2022-10-14T04:51:22.215Z,27.30
2022-10-14T04:53:51.490Z,27.40
2022-10-14T04:56:20.784Z,27.40
2022-10-14T04:58:50.081Z,27.40
2022-10-14T05:01:20.127Z,27.40
2022-10-14T05:03:49.831Z,27.40
2022-10-14T05:06:21.859Z,27.50
2022-10-14T05:08:51.074Z,27.60
2022-10-14T05:11:20.927Z,27.60
2022-10-14T05:13:50.319Z,27.70
2022-10-14T05:16:20.772Z,27.80
2022-10-14T05:18:51.171Z,27.80
2022-10-14T05:21:20.807Z,27.80
2022-10-14T05:23:50.376Z,27.80
2022-10-14T05:26:19.744Z,27.80
2022-10-14T05:28:50.431Z,27.80
2022-10-14T05:31:19.699Z,27.80
2022-10-14T05:33:49.121Z,27.80
2022-10-14T05:36:18.539Z,27.90
2022-10-14T05:38:47.914Z,27.90
2022-10-14T05:41:17.071Z,28.00
2022-10-14T05:43:46.327Z,28.10
2022-10-14T05:46:15.712Z,28.10
2022-10-14T05:48:45.289Z,28.10
2022-10-14T05:51:14.682Z,28.10
2022-10-14T05:53:45.064Z,28.20
2022-10-14T05:56:15.857Z,28.30
2022-10-14T05:58:45.181Z,28.40
2022-10-14T06:01:14.607Z,28.30
2022-10-14T06:03:44.256Z,28.30
2022-10-14T06:06:17.177Z,28.30
2022-10-14T06:08:46.867Z,28.30
2022-10-14T06:11:16.219Z,28.40
2022-10-14T06:13:45.574Z,28.40
2022-10-14T06:16:14.896Z,28.40
2022-10-14T06:18:45.382Z,28.40
2022-10-14T06:21:15.027Z,28.40
2022-10-14T06:23:44.343Z,28.40
2022-10-14T06:26:13.699Z,28.40
2022-10-14T06:28:43.245Z,28.50
2022-10-14T06:31:12.605Z,28.60
2022-10-14T06:33:42.118Z,28.60
2022-10-14T06:36:14.475Z,28.70
2022-10-14T06:38:43.813Z,28.70
2022-10-14T06:41:13.631Z,28.80
2022-10-14T06:43:43.132Z,28.80
2022-10-14T06:46:12.493Z,28.90
2022-10-14T06:48:43.272Z,28.90
2022-10-14T06:51:14.127Z,29.00
2022-10-14T06:53:44.059Z,29.10
2022-10-14T06:56:13.691Z,29.10
2022-10-14T06:58:43.046Z,29.10
2022-10-14T07:01:12.481Z,29.00
2022-10-14T07:03:43.230Z,29.00
2022-10-14T07:06:13.998Z,29.00
2022-10-14T07:08:45.431Z,29.00
2022-10-14T07:11:15.514Z,28.90
2022-10-14T07:13:45.861Z,28.90
2022-10-14T07:16:15.307Z,28.90
2022-10-14T07:18:45.669Z,28.80
2022-10-14T07:21:15.074Z,28.80
2022-10-14T07:23:44.513Z,28.80
2022-10-14T07:26:13.879Z,28.80
2022-10-14T07:28:44.447Z,28.80
2022-10-14T07:31:15.281Z,28.80
2022-10-14T07:33:44.651Z,28.80
2022-10-14T07:36:19.931Z,28.70
2022-10-14T07:38:54.741Z,28.70
2022-10-14T07:41:26.236Z,28.80
2022-10-14T07:44:00.439Z,28.80
2022-10-14T07:46:30.994Z,28.70
2022-10-14T07:49:03.767Z,28.70
2022-10-14T07:51:33.266Z,28.60
2022-10-14T07:54:04.430Z,28.60
2022-10-14T07:56:33.831Z,28.60
2022-10-14T07:59:03.024Z,28.60
2022-10-14T08:01:32.381Z,28.50
2022-10-14T08:04:01.687Z,28.50
2022-10-14T08:06:30.940Z,28.50
2022-10-14T08:09:00.284Z,28.60
2022-10-14T08:11:31.335Z,28.60
2022-10-14T08:14:01.543Z,28.60
2022-10-14T08:16:33.291Z,28.70
2022-10-14T08:19:10.946Z,28.70
2022-10-14T08:21:46.131Z,28.70
2022-10-14T08:24:15.834Z,28.70
2022-10-14T08:26:55.200Z,28.70
2022-10-14T08:29:33.257Z,28.70
2022-10-14T08:34:47.551Z,28.70
2022-10-14T08:37:16.961Z,28.70
2022-10-14T08:39:47.097Z,28.70
2022-10-14T08:42:37.379Z,28.70
2022-10-14T08:45:20.417Z,28.60
2022-10-14T08:47:50.311Z,28.60
2022-10-14T08:50:30.366Z,28.50
2022-10-14T08:53:17.922Z,28.60
2022-10-14T08:55:52.611Z,28.60
2022-10-14T08:58:41.800Z,28.50
2022-10-14T09:01:16.321Z,28.50
2022-10-14T09:03:45.609Z,28.50
2022-10-14T09:06:24.450Z,28.40
2022-10-14T09:08:57.799Z,28.30
2022-10-14T09:11:28.613Z,28.30
2022-10-14T09:14:02.734Z,28.20
2022-10-14T09:16:37.270Z,28.20
2022-10-14T09:19:15.992Z,28.10
2022-10-14T09:21:55.816Z,28.10
2022-10-14T09:24:28.694Z,28.00
2022-10-14T09:27:04.846Z,28.00
2022-10-14T09:29:42.875Z,27.90
2022-10-14T09:32:18.761Z,27.90
2022-10-14T09:34:53.183Z,27.80
2022-10-14T09:37:39.053Z,27.80
2022-10-14T09:40:11.353Z,27.80
2022-10-14T09:43:00.670Z,27.70
2022-10-14T09:45:40.412Z,27.70
2022-10-14T09:48:15.451Z,27.70
2022-10-14T09:50:51.277Z,27.70
2022-10-14T09:53:33.494Z,27.70
2022-10-14T09:56:05.691Z,27.70
2022-10-14T09:58:38.731Z,27.60
2022-10-14T10:01:14.276Z,27.70
2022-10-14T10:03:43.978Z,27.60
2022-10-14T10:06:15.780Z,27.60
2022-10-14T10:09:01.667Z,27.50
2022-10-14T10:11:39.043Z,27.50
2022-10-14T10:14:29.524Z,27.50
2022-10-14T10:17:20.909Z,27.40
2022-10-14T10:19:52.918Z,27.30
2022-10-14T10:22:25.335Z,27.30
2022-10-14T10:25:15.237Z,27.20
2022-10-14T10:27:49.073Z,27.20
2022-10-14T10:30:21.775Z,27.10
2022-10-14T10:32:52.218Z,27.10
2022-10-14T10:35:44.889Z,27.10
2022-10-14T10:38:23.424Z,27.00
2022-10-14T10:41:12.595Z,26.90
2022-10-14T10:43:52.978Z,26.90
2022-10-14T10:46:24.130Z,26.90
2022-10-14T10:49:07.665Z,26.80
2022-10-14T10:51:39.828Z,26.70
2022-10-14T10:54:32.305Z,26.70
2022-10-14T10:57:11.400Z,26.60
2022-10-14T10:59:50.019Z,26.60
2022-10-14T11:02:30.158Z,26.60
2022-10-14T11:05:08.655Z,26.50
2022-10-14T11:08:01.173Z,26.40
2022-10-14T11:10:53.034Z,26.40
2022-10-14T11:13:37.680Z,26.30
2022-10-14T11:16:09.037Z,26.20
2022-10-14T11:18:50.353Z,26.10
2022-10-14T11:21:47.254Z,26.10
2022-10-14T11:24:26.425Z,26.10
2022-10-14T11:27:10.103Z,26.00
2022-10-14T11:29:48.786Z,26.00
2022-10-14T11:32:23.476Z,26.00
2022-10-14T11:35:26.486Z,26.00
2022-10-14T11:38:23.507Z,26.00
2022-10-14T11:41:06.475Z,26.00
2022-10-14T11:43:44.386Z,25.90
2022-10-14T11:46:16.957Z,25.90
2022-10-14T11:49:11.190Z,25.90
2022-10-14T11:52:03.756Z,25.90
2022-10-14T11:54:55.504Z,25.90
2022-10-14T11:57:32.305Z,25.80
2022-10-14T12:00:24.730Z,25.80
2022-10-14T12:03:04.387Z,25.80
2022-10-14T12:05:40.596Z,25.80
2022-10-14T12:08:11.915Z,25.80
2022-10-14T12:10:49.537Z,25.80
2022-10-14T12:13:22.473Z,25.80
2022-10-14T12:15:54.927Z,25.80
2022-10-14T12:18:25.017Z,25.80
2022-10-14T12:21:01.074Z,25.80
2022-10-14T12:23:50.135Z,25.70
2022-10-14T12:26:24.853Z,25.70
2022-10-14T12:28:56.798Z,25.70
2022-10-14T12:31:33.691Z,25.70
2022-10-14T12:34:26.890Z,25.60
2022-10-14T12:36:55.909Z,25.60
2022-10-14T12:39:32.718Z,25.60
2022-10-14T12:42:07.581Z,25.60
2022-10-14T12:44:57.752Z,25.60
2022-10-14T12:47:37.921Z,25.50
2022-10-14T12:50:19.210Z,25.50
2022-10-14T12:52:58.385Z,25.50
2022-10-14T12:55:30.468Z,25.50
2022-10-14T12:58:05.405Z,25.50
2022-10-14T13:00:42.722Z,25.50
2022-10-14T13:03:33.612Z,25.50
2022-10-14T13:06:31.236Z,25.50
2022-10-14T13:09:17.268Z,25.40
2022-10-14T13:11:55.658Z,25.40
2022-10-14T13:14:29.482Z,25.40
2022-10-14T13:17:00.839Z,25.40
2022-10-14T13:19:38.990Z,25.40
2022-10-14T13:22:34.654Z,25.30
2022-10-14T13:25:21.966Z,25.30
2022-10-14T13:27:57.408Z,25.30
2022-10-14T13:30:37.237Z,25.20
2022-10-14T13:33:20.269Z,25.20
2022-10-14T13:35:51.676Z,25.10
2022-10-14T13:38:23.302Z,25.10
2022-10-14T13:40:57.755Z,25.10
2022-10-14T13:43:44.495Z,25.10
2022-10-14T13:46:26.287Z,25.10
2022-10-14T13:49:01.143Z,25.00
2022-10-14T13:51:37.337Z,25.00
2022-10-14T13:54:28.401Z,25.00
2022-10-14T14:02:53.403Z,25.00
2022-10-14T14:05:25.474Z,25.00
2022-10-14T14:11:16.258Z,25.00
2022-10-14T14:13:58.907Z,25.00
2022-10-14T14:16:36.416Z,25.00
2022-10-14T14:19:09.320Z,25.00
2022-10-14T14:21:40.012Z,25.00
2022-10-14T14:24:19.772Z,24.90
2022-10-14T14:26:49.323Z,24.90
2022-10-14T14:29:21.277Z,24.90
2022-10-14T14:32:07.497Z,24.90
2022-10-14T14:34:39.868Z,24.90
2022-10-14T14:40:26.143Z,24.90
2022-10-14T14:42:59.653Z,24.90
2022-10-14T14:45:32.980Z,25.00
2022-10-14T14:48:06.923Z,25.00
2022-10-14T14:50:39.454Z,25.00
2022-10-14T14:53:14.887Z,25.00
2022-10-14T14:55:48.475Z,25.00
2022-10-14T14:58:30.073Z,25.00
2022-10-14T15:01:00.081Z,25.00
2022-10-14T15:03:33.256Z,25.00
2022-10-14T15:06:05.720Z,24.90
2022-10-14T15:08:39.583Z,24.90
2022-10-14T15:11:09.001Z,24.90
2022-10-14T15:13:42.683Z,24.90
2022-10-14T15:16:12.204Z,24.90
2022-10-14T15:18:44.977Z,24.90
2022-10-14T15:21:15.481Z,24.90
2022-10-14T15:23:47.729Z,24.90
2022-10-14T15:26:38.700Z,24.90
2022-10-14T15:29:17.845Z,24.90
2022-10-14T15:32:04.298Z,24.90
2022-10-14T15:34:33.671Z,24.90
2022-10-14T15:37:03.159Z,24.90
2022-10-14T15:39:32.442Z,24.90
2022-10-14T15:42:03.641Z,24.90
2022-10-14T15:44:32.898Z,24.90
2022-10-14T15:47:23.162Z,24.90
2022-10-14T15:49:52.612Z,24.90
2022-10-14T15:52:24.508Z,24.90
2022-10-14T15:54:59.116Z,24.80
2022-10-14T15:57:28.543Z,24.80
2022-10-14T15:59:57.886Z,24.80
2022-10-14T16:02:34.359Z,24.80
2022-10-14T16:05:20.367Z,24.80
2022-10-14T16:07:51.362Z,24.90
2022-10-14T16:10:23.211Z,24.90
2022-10-14T16:12:53.002Z,24.90
2022-10-14T16:15:45.799Z,24.90
2022-10-14T16:18:15.102Z,24.90
2022-10-14T16:20:44.396Z,24.90
2022-10-14T16:23:20.158Z,24.90
2022-10-14T16:25:51.842Z,24.90
2022-10-14T16:28:22.945Z,24.90
2022-10-14T16:30:52.183Z,24.90
2022-10-14T16:33:23.665Z,24.80
2022-10-14T16:35:57.649Z,24.80
2022-10-14T16:38:26.894Z,24.80
2022-10-14T16:40:59.100Z,24.80
2022-10-14T16:43:29.336Z,24.80
2022-10-14T16:46:01.590Z,24.80
2022-10-14T16:48:31.157Z,24.80
2022-10-14T16:51:00.413Z,24.80
2022-10-14T16:53:47.641Z,24.70
2022-10-14T16:56:40.986Z,24.80
2022-10-14T17:02:43.413Z,24.70
2022-10-14T17:05:13.052Z,24.70
2022-10-14T17:07:42.467Z,24.70
2022-10-14T17:10:12.709Z,24.70
2022-10-14T17:12:43.660Z,24.70
2022-10-14T17:15:13.995Z,24.70
2022-10-14T17:17:43.241Z,24.70
2022-10-14T17:20:12.619Z,24.70
2022-10-14T17:22:42.548Z,24.60
2022-10-14T17:25:12.291Z,24.60
2022-10-14T17:27:41.481Z,24.60
2022-10-14T17:30:11.326Z,24.60
2022-10-14T17:32:40.822Z,24.60
2022-10-14T17:35:14.353Z,24.60
2022-10-14T17:37:44.605Z,24.60
2022-10-14T17:40:14.489Z,24.60
2022-10-14T17:42:44.053Z,24.60
2022-10-14T17:45:13.593Z,24.50
2022-10-14T17:47:42.965Z,24.60
2022-10-14T17:50:13.089Z,24.60
2022-10-14T17:52:42.294Z,24.50
2022-10-14T17:55:11.726Z,24.50
2022-10-14T17:57:40.952Z,24.50
2022-10-14T18:00:10.840Z,24.50
2022-10-14T18:02:40.249Z,24.50
2022-10-14T18:05:09.835Z,24.50
2022-10-14T18:07:39.496Z,24.50
2022-10-14T18:10:09.090Z,24.50
2022-10-14T18:12:38.344Z,24.50
2022-10-14T18:15:07.987Z,24.50
2022-10-14T18:17:37.973Z,24.50
2022-10-14T18:20:08.408Z,24.50
2022-10-14T18:22:37.707Z,24.50
2022-10-14T18:25:08.224Z,24.50
2022-10-14T18:27:37.416Z,24.50
2022-10-14T18:30:07.136Z,24.40
2022-10-14T18:32:36.506Z,24.50
2022-10-14T18:35:07.088Z,24.50
2022-10-14T18:37:36.320Z,24.50
2022-10-14T18:40:05.771Z,24.50
2022-10-14T18:42:34.961Z,24.50
2022-10-14T18:45:04.346Z,24.50
2022-10-14T18:47:33.505Z,24.50
2022-10-14T18:52:33.435Z,24.50
2022-10-14T18:55:02.647Z,24.40
2022-10-14T18:57:31.902Z,24.40
2022-10-14T19:00:01.200Z,24.40
2022-10-14T19:02:30.476Z,24.40
2022-10-14T19:04:59.912Z,24.40
2022-10-14T19:07:29.178Z,24.40
2022-10-14T19:09:58.354Z,24.40
2022-10-14T19:12:43.479Z,24.30
2022-10-14T19:15:13.436Z,24.30
2022-10-14T19:17:44.244Z,24.40
2022-10-14T19:20:13.471Z,24.30
2022-10-14T19:22:46.178Z,24.30
2022-10-14T19:25:15.488Z,24.30
2022-10-14T19:27:45.437Z,24.30
2022-10-14T19:30:14.840Z,24.30
2022-10-14T19:32:43.983Z,24.20
2022-10-14T19:35:13.227Z,24.30
2022-10-14T19:37:42.439Z,24.20
2022-10-14T19:40:12.103Z,24.20
2022-10-14T19:42:41.428Z,24.20
2022-10-14T19:45:11.523Z,24.20
2022-10-14T19:47:40.769Z,24.20
2022-10-14T19:50:10.454Z,24.10
2022-10-14T19:52:39.649Z,24.00
2022-10-14T19:55:09.499Z,24.00
2022-10-14T19:57:38.671Z,23.90
2022-10-14T20:00:08.478Z,23.90
2022-10-14T20:05:07.943Z,23.90
2022-10-14T20:07:37.090Z,23.90
2022-10-14T20:10:06.664Z,23.80
2022-10-14T20:12:35.891Z,23.70
2022-10-14T20:15:05.811Z,23.70
2022-10-14T20:17:35.387Z,23.70
2022-10-14T20:20:04.889Z,23.70
2022-10-14T20:22:34.509Z,23.70
2022-10-14T20:25:03.917Z,23.70
2022-10-14T20:27:33.165Z,23.70
2022-10-14T20:30:02.416Z,23.60
2022-10-14T20:32:31.633Z,23.60
2022-10-14T20:35:00.872Z,23.60
2022-10-14T20:37:34.130Z,23.50
2022-10-14T20:40:03.432Z,23.50
2022-10-14T20:42:35.094Z,23.40
2022-10-14T20:45:04.642Z,23.40
2022-10-14T20:47:33.809Z,23.40
2022-10-14T20:50:03.000Z,23.40
2022-10-14T20:52:32.306Z,23.30
2022-10-14T20:55:02.578Z,23.30
2022-10-14T20:57:32.808Z,23.30
2022-10-14T21:00:02.060Z,23.30
2022-10-14T21:02:31.409Z,23.30
2022-10-14T21:05:00.778Z,23.20
2022-10-14T21:07:30.421Z,23.30
2022-10-14T21:09:59.687Z,23.20
2022-10-14T21:12:28.863Z,23.10
2022-10-14T21:14:58.086Z,23.10
2022-10-14T21:17:27.345Z,23.00
2022-10-14T21:19:56.552Z,23.00
2022-10-14T21:22:26.279Z,23.00
2022-10-14T21:24:55.991Z,22.90
2022-10-14T21:27:25.517Z,22.80
2022-10-14T21:32:25.270Z,22.80
2022-10-14T21:34:54.927Z,22.90
2022-10-14T21:37:24.179Z,22.80
2022-10-14T21:39:53.404Z,22.70
2022-10-14T21:42:23.073Z,22.70
2022-10-14T21:44:52.466Z,22.60
2022-10-14T21:47:21.687Z,22.60
2022-10-14T21:49:50.852Z,22.60
2022-10-14T21:52:20.330Z,22.60
2022-10-14T21:54:49.723Z,22.60
2022-10-14T21:57:19.036Z,22.60
2022-10-14T21:59:50.980Z,22.60
2022-10-14T22:02:20.283Z,22.60
2022-10-14T22:04:49.466Z,22.50
2022-10-14T22:07:18.647Z,22.40
2022-10-14T22:09:47.896Z,22.40
2022-10-14T22:12:17.922Z,22.40
2022-10-14T22:14:47.082Z,22.40
2022-10-14T22:17:16.313Z,22.40
2022-10-14T22:19:45.533Z,22.40
2022-10-14T22:22:14.623Z,22.40
2022-10-14T22:24:45.301Z,22.40
2022-10-14T22:27:14.472Z,22.40
2022-10-14T22:29:43.722Z,22.40
2022-10-14T22:32:14.147Z,22.40
2022-10-14T22:34:46.178Z,22.40
2022-10-14T22:37:15.401Z,22.40
2022-10-14T22:39:44.580Z,22.40
2022-10-14T22:42:13.890Z,22.30
2022-10-14T22:44:43.121Z,22.30
2022-10-14T22:47:12.381Z,22.30
2022-10-14T22:49:41.561Z,22.30
2022-10-14T22:52:10.839Z,22.30
2022-10-14T22:54:40.044Z,22.40
2022-10-14T22:57:09.303Z,22.30
2022-10-14T22:59:38.570Z,22.30
2022-10-14T23:02:07.773Z,22.30
2022-10-14T23:04:37.368Z,22.30
2022-10-14T23:07:07.220Z,22.20
2022-10-14T23:09:36.471Z,22.20
2022-10-14T23:12:06.920Z,22.20
2022-10-14T23:14:36.119Z,22.20
2022-10-14T23:17:05.325Z,22.20
2022-10-14T23:19:34.694Z,22.20
2022-10-14T23:22:03.933Z,22.20
2022-10-14T23:24:33.159Z,22.20
2022-10-14T23:27:02.320Z,22.10
2022-10-14T23:29:31.559Z,22.10
2022-10-14T23:32:00.827Z,22.10
2022-10-14T23:34:30.020Z,22.10
2022-10-14T23:36:59.367Z,22.10
2022-10-14T23:39:28.671Z,22.10
2022-10-14T23:41:58.029Z,22.10
2022-10-14T23:44:27.333Z,22.10
2022-10-14T23:46:56.583Z,22.10
2022-10-14T23:49:26.468Z,22.10
2022-10-14T23:51:56.982Z,22.10
2022-10-14T23:54:26.361Z,22.10
2022-10-14T23:56:55.532Z,22.10
2022-10-14T23:59:24.845Z,22.10
